JAF33B EBAW-LEMG
Flight info
| Callsign | JAF33B |
|---|---|
| Flight time | 2h 35m |
| Altitude | 39000 |
| Route | NIK N872 LESDO DCT KOVIN DCT DUCRA UM728 RESMI UN857 DISAK DCT ARKIP DCT ARNAV DCT LMG DCT UVELI DCT OSMOB DCT VAVIX DCT NETUK DCT PPN DCT NOLSA N857 VASUM DCT BANEV DCT BAN DCT PINAR DCT CJN DCT INTAX DCT NASOS DCT ANZAN DCT BLN |
| Aircraft | E190/M-SDE3GILORVW/S |
Departure
| Time | 2026-05-06 11:58 |
|---|---|
| Airport | Antwerp International Airport (Deurne) (EBAW) |
Arrival
| Time | 2026-05-06 14:33 |
|---|---|
| Airport | Málaga-Costa del Sol Airport (LEMG) |
| Time | Latitude | Longitude | Altitude | Speed | Heading |
|---|---|---|---|---|---|
| 2026-05-06 11:37 | 51.18906 | 4.45274 | 46 ft | 0 kts | 329° |
| 2026-05-06 11:50 | 51.18922 | 4.45261 | 43 ft | 5 kts | 340° |
| 2026-05-06 11:51 | 51.18937 | 4.45268 | 45 ft | 2 kts | 27° |
| 2026-05-06 11:51 | 51.18943 | 4.45276 | 44 ft | 0 kts | 41° |
| 2026-05-06 11:51 | 51.18948 | 4.45288 | 42 ft | 1 kts | 54° |
| 2026-05-06 11:52 | 51.18953 | 4.45378 | 43 ft | 11 kts | 86° |
| 2026-05-06 11:52 | 51.19008 | 4.45504 | 37 ft | 14 kts | 43° |
| 2026-05-06 11:52 | 51.19075 | 4.45463 | 34 ft | 7 kts | 322° |
| 2026-05-06 11:52 | 51.19080 | 4.45456 | 34 ft | 0 kts | 322° |
| 2026-05-06 11:54 | 51.19098 | 4.45434 | 34 ft | 8 kts | 321° |
| 2026-05-06 11:54 | 51.19145 | 4.45366 | 34 ft | 10 kts | 318° |
| 2026-05-06 11:54 | 51.19194 | 4.45302 | 35 ft | 8 kts | 322° |
| 2026-05-06 11:55 | 51.19219 | 4.45338 | 35 ft | 5 kts | 94° |
| 2026-05-06 11:55 | 51.19214 | 4.45360 | 35 ft | 0 kts | 110° |
| 2026-05-06 11:57 | 51.19154 | 4.45616 | 35 ft | 63 kts | 109° |
| 2026-05-06 11:57 | 51.18921 | 4.46649 | 40 ft | 136 kts | 110° |
| 2026-05-06 11:58 | 51.18539 | 4.48293 | 421 ft | 169 kts | 109° |
| 2026-05-06 11:58 | 51.17945 | 4.50022 | 1319 ft | 190 kts | 130° |
| 2026-05-06 11:58 | 51.16667 | 4.51095 | 1829 ft | 232 kts | 171° |
| 2026-05-06 11:58 | 51.15243 | 4.50774 | 2256 ft | 212 kts | 207° |
| 2026-05-06 11:59 | 51.13961 | 4.49391 | 1913 ft | 233 kts | 217° |
| 2026-05-06 11:59 | 51.12705 | 4.47879 | 2118 ft | 217 kts | 230° |
| 2026-05-06 11:59 | 51.11924 | 4.45846 | 2065 ft | 215 kts | 252° |
| 2026-05-06 11:59 | 51.11559 | 4.43559 | 2119 ft | 218 kts | 273° |
| 2026-05-06 12:00 | 51.11752 | 4.41235 | 3068 ft | 207 kts | 286° |
| 2026-05-06 12:00 | 51.12092 | 4.38892 | 3583 ft | 228 kts | 288° |
| 2026-05-06 12:00 | 51.12527 | 4.36404 | 4089 ft | 245 kts | 291° |
| 2026-05-06 12:00 | 51.13097 | 4.33750 | 4582 ft | 260 kts | 293° |
| 2026-05-06 12:01 | 51.13711 | 4.30994 | 5193 ft | 266 kts | 292° |
| 2026-05-06 12:01 | 51.14327 | 4.28212 | 5911 ft | 267 kts | 291° |
| 2026-05-06 12:01 | 51.14945 | 4.25417 | 6600 ft | 269 kts | 291° |
| 2026-05-06 12:01 | 51.15554 | 4.22583 | 7215 ft | 273 kts | 287° |
| 2026-05-06 12:02 | 51.15600 | 4.19543 | 7779 ft | 281 kts | 258° |
| 2026-05-06 12:02 | 51.14697 | 4.16771 | 8370 ft | 288 kts | 229° |
| 2026-05-06 12:02 | 51.13042 | 4.14969 | 9001 ft | 293 kts | 201° |
| 2026-05-06 12:02 | 51.11074 | 4.14074 | 9660 ft | 296 kts | 194° |
| 2026-05-06 12:03 | 51.09049 | 4.13321 | 10191 ft | 304 kts | 193° |
| 2026-05-06 12:03 | 51.06932 | 4.12555 | 10449 ft | 320 kts | 193° |
| 2026-05-06 12:03 | 51.04746 | 4.11752 | 11017 ft | 323 kts | 194° |
| 2026-05-06 12:03 | 51.02584 | 4.10725 | 11598 ft | 326 kts | 199° |
| 2026-05-06 12:04 | 51.00425 | 4.09570 | 12233 ft | 328 kts | 199° |
| 2026-05-06 12:04 | 50.98250 | 4.08390 | 12835 ft | 331 kts | 200° |
| 2026-05-06 12:04 | 50.96065 | 4.07196 | 13438 ft | 334 kts | 200° |
| 2026-05-06 12:04 | 50.93846 | 4.05987 | 13992 ft | 337 kts | 200° |
| 2026-05-06 12:05 | 50.91622 | 4.04781 | 14563 ft | 339 kts | 199° |
| 2026-05-06 12:05 | 50.89380 | 4.03616 | 15129 ft | 340 kts | 200° |
| 2026-05-06 12:05 | 50.87170 | 4.02261 | 15687 ft | 342 kts | 203° |
| 2026-05-06 12:05 | 50.84953 | 4.00854 | 16250 ft | 343 kts | 204° |
| 2026-05-06 12:06 | 50.82729 | 3.99434 | 16823 ft | 345 kts | 204° |
| 2026-05-06 12:06 | 50.81260 | 3.98491 | 17192 ft | 347 kts | 204° |
| 2026-05-06 12:06 | 50.79347 | 3.97270 | 17687 ft | 348 kts | 204° |
| 2026-05-06 12:07 | 50.77091 | 3.95828 | 18274 ft | 350 kts | 204° |
| 2026-05-06 12:07 | 50.74829 | 3.94379 | 18771 ft | 352 kts | 204° |
| 2026-05-06 12:07 | 50.72543 | 3.92916 | 19278 ft | 355 kts | 204° |
| 2026-05-06 12:07 | 50.70252 | 3.91457 | 19790 ft | 357 kts | 203° |
| 2026-05-06 12:08 | 50.68892 | 3.90592 | 20081 ft | 359 kts | 203° |
| 2026-05-06 12:08 | 50.66709 | 3.89197 | 20528 ft | 361 kts | 203° |
| 2026-05-06 12:08 | 50.64372 | 3.87710 | 21005 ft | 364 kts | 203° |
| 2026-05-06 12:08 | 50.62013 | 3.86215 | 21446 ft | 367 kts | 203° |
| 2026-05-06 12:09 | 50.59622 | 3.84756 | 21871 ft | 370 kts | 202° |
| 2026-05-06 12:09 | 50.57245 | 3.83174 | 22289 ft | 372 kts | 204° |
| 2026-05-06 12:09 | 50.54857 | 3.81551 | 22721 ft | 375 kts | 204° |
| 2026-05-06 12:09 | 50.52455 | 3.79911 | 23147 ft | 378 kts | 204° |
| 2026-05-06 12:10 | 50.50033 | 3.78257 | 23567 ft | 380 kts | 204° |
| 2026-05-06 12:10 | 50.47600 | 3.76596 | 23957 ft | 382 kts | 204° |
| 2026-05-06 12:10 | 50.45157 | 3.74932 | 24348 ft | 384 kts | 204° |
| 2026-05-06 12:10 | 50.42700 | 3.73259 | 24715 ft | 386 kts | 204° |
| 2026-05-06 12:11 | 50.40223 | 3.71575 | 25081 ft | 388 kts | 203° |
| 2026-05-06 12:11 | 50.37742 | 3.69888 | 25431 ft | 390 kts | 203° |
| 2026-05-06 12:11 | 50.35245 | 3.68195 | 25756 ft | 391 kts | 203° |
| 2026-05-06 12:11 | 50.32741 | 3.66501 | 26072 ft | 393 kts | 203° |
| 2026-05-06 12:12 | 50.30217 | 3.64796 | 26378 ft | 395 kts | 203° |
| 2026-05-06 12:12 | 50.27691 | 3.63090 | 26682 ft | 397 kts | 203° |
| 2026-05-06 12:12 | 50.25151 | 3.61377 | 26992 ft | 398 kts | 203° |
| 2026-05-06 12:12 | 50.22601 | 3.59660 | 27283 ft | 400 kts | 202° |
| 2026-05-06 12:13 | 50.20046 | 3.57937 | 27584 ft | 401 kts | 202° |
| 2026-05-06 12:13 | 50.17474 | 3.56209 | 27875 ft | 403 kts | 202° |
| 2026-05-06 12:13 | 50.14892 | 3.54477 | 28163 ft | 404 kts | 202° |
| 2026-05-06 12:13 | 50.12297 | 3.52738 | 28424 ft | 406 kts | 202° |
| 2026-05-06 12:14 | 50.09727 | 3.51017 | 28692 ft | 407 kts | 202° |
| 2026-05-06 12:14 | 50.07117 | 3.49272 | 28929 ft | 409 kts | 202° |
| 2026-05-06 12:14 | 50.04491 | 3.47517 | 29176 ft | 410 kts | 202° |
| 2026-05-06 12:14 | 50.01867 | 3.45766 | 29421 ft | 411 kts | 201° |
| 2026-05-06 12:15 | 49.99231 | 3.44011 | 29638 ft | 412 kts | 201° |
| 2026-05-06 12:15 | 49.96588 | 3.42250 | 29842 ft | 414 kts | 201° |
| 2026-05-06 12:15 | 49.91219 | 3.38682 | 29977 ft | 422 kts | 202° |
| 2026-05-06 12:16 | 49.88511 | 3.36885 | 30198 ft | 422 kts | 201° |
| 2026-05-06 12:16 | 49.85805 | 3.35094 | 30429 ft | 421 kts | 201° |
| 2026-05-06 12:16 | 49.83109 | 3.33312 | 30645 ft | 421 kts | 201° |
| 2026-05-06 12:16 | 49.80445 | 3.31551 | 30860 ft | 421 kts | 201° |
| 2026-05-06 12:17 | 49.77746 | 3.29766 | 31080 ft | 420 kts | 201° |
| 2026-05-06 12:17 | 49.75058 | 3.27993 | 31315 ft | 420 kts | 201° |
| 2026-05-06 12:17 | 49.72365 | 3.26219 | 31521 ft | 420 kts | 201° |
| 2026-05-06 12:17 | 49.69677 | 3.24448 | 31737 ft | 420 kts | 201° |
| 2026-05-06 12:18 | 49.66994 | 3.22685 | 31955 ft | 419 kts | 202° |
| 2026-05-06 12:18 | 49.64304 | 3.20918 | 32187 ft | 419 kts | 202° |
| 2026-05-06 12:18 | 49.61622 | 3.19160 | 32420 ft | 418 kts | 202° |
| 2026-05-06 12:18 | 49.58946 | 3.17408 | 32647 ft | 418 kts | 202° |
| 2026-05-06 12:19 | 49.56255 | 3.15647 | 32869 ft | 418 kts | 202° |
| 2026-05-06 12:19 | 49.53579 | 3.13896 | 33109 ft | 418 kts | 201° |
| 2026-05-06 12:19 | 49.50925 | 3.12090 | 33364 ft | 417 kts | 204° |
| 2026-05-06 12:19 | 49.48326 | 3.10099 | 33581 ft | 417 kts | 207° |
| 2026-05-06 12:20 | 49.45843 | 3.07786 | 33813 ft | 418 kts | 212° |
| 2026-05-06 12:20 | 49.43396 | 3.05356 | 34022 ft | 417 kts | 212° |
| 2026-05-06 12:20 | 49.40968 | 3.02898 | 34226 ft | 417 kts | 212° |
| 2026-05-06 12:20 | 49.38549 | 3.00441 | 34432 ft | 416 kts | 212° |
| 2026-05-06 12:21 | 49.36134 | 2.97990 | 34634 ft | 416 kts | 212° |
| 2026-05-06 12:21 | 49.33748 | 2.95573 | 34871 ft | 415 kts | 212° |
| 2026-05-06 12:21 | 49.31331 | 2.93129 | 35081 ft | 415 kts | 213° |
| 2026-05-06 12:21 | 49.28913 | 2.90683 | 35294 ft | 415 kts | 213° |
| 2026-05-06 12:22 | 49.26502 | 2.88250 | 35501 ft | 415 kts | 213° |
| 2026-05-06 12:22 | 49.24076 | 2.85805 | 35701 ft | 415 kts | 213° |
| 2026-05-06 12:22 | 49.21662 | 2.83374 | 35909 ft | 415 kts | 213° |
| 2026-05-06 12:22 | 49.19278 | 2.80976 | 36088 ft | 415 kts | 213° |
| 2026-05-06 12:23 | 49.16856 | 2.78544 | 36270 ft | 415 kts | 213° |
| 2026-05-06 12:23 | 49.14436 | 2.76117 | 36449 ft | 414 kts | 213° |
| 2026-05-06 12:23 | 49.12052 | 2.73728 | 36634 ft | 414 kts | 213° |
| 2026-05-06 12:23 | 49.09629 | 2.71303 | 36798 ft | 414 kts | 213° |
| 2026-05-06 12:24 | 49.07206 | 2.68882 | 36967 ft | 414 kts | 213° |
| 2026-05-06 12:24 | 49.04794 | 2.66473 | 37124 ft | 414 kts | 213° |
| 2026-05-06 12:24 | 49.02411 | 2.64097 | 37274 ft | 414 kts | 213° |
| 2026-05-06 12:24 | 48.99998 | 2.61694 | 37425 ft | 414 kts | 213° |
| 2026-05-06 12:25 | 48.97580 | 2.59289 | 37552 ft | 414 kts | 213° |
| 2026-05-06 12:25 | 48.95154 | 2.56876 | 37690 ft | 414 kts | 213° |
| 2026-05-06 12:25 | 48.92758 | 2.54498 | 37819 ft | 414 kts | 213° |
| 2026-05-06 12:25 | 48.90344 | 2.52105 | 37940 ft | 414 kts | 213° |
| 2026-05-06 12:26 | 48.87926 | 2.49711 | 38061 ft | 414 kts | 213° |
| 2026-05-06 12:26 | 48.85512 | 2.47322 | 38181 ft | 414 kts | 213° |
| 2026-05-06 12:26 | 48.83096 | 2.44936 | 38296 ft | 414 kts | 213° |
| 2026-05-06 12:26 | 48.80676 | 2.42547 | 38408 ft | 414 kts | 213° |
| 2026-05-06 12:27 | 48.78254 | 2.40162 | 38516 ft | 414 kts | 213° |
| 2026-05-06 12:27 | 48.75841 | 2.37784 | 38595 ft | 414 kts | 213° |
| 2026-05-06 12:27 | 48.71024 | 2.33050 | 38744 ft | 403 kts | 213° |
| 2026-05-06 12:28 | 48.66321 | 2.28438 | 38875 ft | 403 kts | 213° |
| 2026-05-06 12:28 | 48.61599 | 2.23819 | 38914 ft | 406 kts | 213° |
| 2026-05-06 12:29 | 48.56614 | 2.19903 | 38923 ft | 409 kts | 201° |
| 2026-05-06 12:29 | 48.51138 | 2.17391 | 38920 ft | 413 kts | 193° |
| 2026-05-06 12:30 | 48.46449 | 2.15822 | 38916 ft | 416 kts | 193° |
| 2026-05-06 12:30 | 48.40756 | 2.13987 | 38911 ft | 420 kts | 193° |
| 2026-05-06 12:31 | 48.35022 | 2.12144 | 38913 ft | 421 kts | 193° |
| 2026-05-06 12:31 | 48.29249 | 2.10745 | 38920 ft | 421 kts | 184° |
| 2026-05-06 12:32 | 48.23398 | 2.11089 | 38912 ft | 422 kts | 173° |
| 2026-05-06 12:32 | 48.17578 | 2.12265 | 38921 ft | 422 kts | 174° |
| 2026-05-06 12:33 | 48.11732 | 2.12581 | 38929 ft | 420 kts | 182° |
| 2026-05-06 12:33 | 48.05919 | 2.11740 | 38934 ft | 419 kts | 188° |
| 2026-05-06 12:34 | 48.00126 | 2.10639 | 38938 ft | 419 kts | 188° |
| 2026-05-06 12:34 | 47.94337 | 2.09528 | 38942 ft | 419 kts | 188° |
| 2026-05-06 12:35 | 47.88550 | 2.08422 | 38939 ft | 419 kts | 188° |
| 2026-05-06 12:35 | 47.82761 | 2.07320 | 38940 ft | 419 kts | 188° |
| 2026-05-06 12:36 | 47.76964 | 2.06218 | 38935 ft | 420 kts | 188° |
| 2026-05-06 12:36 | 47.71171 | 2.05120 | 38930 ft | 420 kts | 188° |
| 2026-05-06 12:37 | 47.65392 | 2.03859 | 38929 ft | 419 kts | 194° |
| 2026-05-06 12:37 | 47.59779 | 2.01511 | 38934 ft | 419 kts | 202° |
| 2026-05-06 12:38 | 47.54336 | 1.98419 | 38914 ft | 419 kts | 202° |
| 2026-05-06 12:38 | 47.48904 | 1.95273 | 38915 ft | 419 kts | 202° |
| 2026-05-06 12:39 | 47.43475 | 1.92133 | 38910 ft | 419 kts | 202° |
| 2026-05-06 12:39 | 47.38042 | 1.89000 | 38915 ft | 419 kts | 202° |
| 2026-05-06 12:40 | 47.32607 | 1.85873 | 38917 ft | 419 kts | 202° |
| 2026-05-06 12:40 | 47.27158 | 1.82745 | 38918 ft | 419 kts | 202° |
| 2026-05-06 12:41 | 47.21719 | 1.79614 | 38915 ft | 420 kts | 201° |
| 2026-05-06 12:41 | 47.16266 | 1.76541 | 38906 ft | 420 kts | 202° |
| 2026-05-06 12:42 | 47.10812 | 1.73469 | 38922 ft | 420 kts | 202° |
| 2026-05-06 12:42 | 47.05353 | 1.70400 | 38928 ft | 420 kts | 202° |
| 2026-05-06 12:43 | 46.99895 | 1.67337 | 38922 ft | 420 kts | 202° |
| 2026-05-06 12:43 | 46.94432 | 1.64279 | 38918 ft | 420 kts | 201° |
| 2026-05-06 12:44 | 46.88972 | 1.61228 | 38921 ft | 420 kts | 202° |
| 2026-05-06 12:44 | 46.83507 | 1.58182 | 38910 ft | 420 kts | 202° |
| 2026-05-06 12:45 | 46.78046 | 1.55144 | 38907 ft | 420 kts | 201° |
| 2026-05-06 12:46 | 46.69848 | 1.50598 | 38906 ft | 420 kts | 202° |
| 2026-05-06 12:46 | 46.64383 | 1.47574 | 38923 ft | 420 kts | 201° |
| 2026-05-06 12:47 | 46.58945 | 1.44572 | 38915 ft | 420 kts | 202° |
| 2026-05-06 12:47 | 46.53475 | 1.41560 | 38906 ft | 420 kts | 202° |
| 2026-05-06 12:48 | 46.48008 | 1.38554 | 38913 ft | 420 kts | 201° |
| 2026-05-06 12:48 | 46.42540 | 1.35556 | 38918 ft | 420 kts | 202° |
| 2026-05-06 12:49 | 46.37067 | 1.32560 | 38906 ft | 420 kts | 201° |
| 2026-05-06 12:49 | 46.31595 | 1.29572 | 38917 ft | 420 kts | 201° |
| 2026-05-06 12:50 | 46.26149 | 1.26604 | 38897 ft | 420 kts | 201° |
| 2026-05-06 12:50 | 46.20676 | 1.23628 | 38913 ft | 420 kts | 201° |
| 2026-05-06 12:51 | 46.15184 | 1.20648 | 38906 ft | 420 kts | 201° |
| 2026-05-06 12:51 | 46.09736 | 1.17699 | 38909 ft | 420 kts | 202° |
| 2026-05-06 12:52 | 46.04256 | 1.14738 | 38907 ft | 419 kts | 201° |
| 2026-05-06 12:52 | 45.98805 | 1.11799 | 38917 ft | 420 kts | 202° |
| 2026-05-06 12:53 | 45.93324 | 1.08849 | 38906 ft | 419 kts | 202° |
| 2026-05-06 12:53 | 45.87870 | 1.05921 | 38917 ft | 419 kts | 202° |
| 2026-05-06 12:54 | 45.82547 | 1.02552 | 38916 ft | 417 kts | 212° |
| 2026-05-06 12:54 | 45.77767 | 0.97890 | 38909 ft | 417 kts | 220° |
| 2026-05-06 12:55 | 45.73282 | 0.92599 | 38903 ft | 416 kts | 220° |
| 2026-05-06 12:55 | 45.68856 | 0.87307 | 38909 ft | 416 kts | 221° |
| 2026-05-06 12:56 | 45.64443 | 0.82039 | 38903 ft | 416 kts | 220° |
| 2026-05-06 12:56 | 45.59983 | 0.76729 | 38903 ft | 416 kts | 221° |
| 2026-05-06 12:57 | 45.55537 | 0.71446 | 38898 ft | 417 kts | 220° |
| 2026-05-06 12:57 | 45.51066 | 0.66146 | 38914 ft | 416 kts | 220° |
| 2026-05-06 12:58 | 45.46631 | 0.60899 | 38895 ft | 416 kts | 220° |
| 2026-05-06 12:58 | 45.42167 | 0.55631 | 38916 ft | 416 kts | 220° |
| 2026-05-06 12:59 | 45.37686 | 0.50352 | 38893 ft | 416 kts | 220° |
| 2026-05-06 12:59 | 45.33236 | 0.45122 | 38906 ft | 416 kts | 220° |
| 2026-05-06 13:00 | 45.28794 | 0.39912 | 38895 ft | 416 kts | 220° |
| 2026-05-06 13:00 | 45.24318 | 0.34673 | 38903 ft | 416 kts | 220° |
| 2026-05-06 13:01 | 45.19849 | 0.29452 | 38897 ft | 416 kts | 220° |
| 2026-05-06 13:01 | 45.15376 | 0.24241 | 38905 ft | 416 kts | 220° |
| 2026-05-06 13:02 | 45.10908 | 0.19043 | 38896 ft | 415 kts | 220° |
| 2026-05-06 13:02 | 45.06433 | 0.13849 | 38910 ft | 415 kts | 220° |
| 2026-05-06 13:03 | 45.01983 | 0.08695 | 38898 ft | 415 kts | 220° |
| 2026-05-06 13:03 | 44.97502 | 0.03516 | 38914 ft | 415 kts | 220° |
| 2026-05-06 13:04 | 44.93045 | -0.01625 | 38904 ft | 415 kts | 221° |
| 2026-05-06 13:04 | 44.88574 | -0.06770 | 38922 ft | 415 kts | 220° |
| 2026-05-06 13:05 | 44.84079 | -0.11933 | 38915 ft | 415 kts | 220° |
| 2026-05-06 13:05 | 44.79623 | -0.17040 | 38915 ft | 414 kts | 220° |
| 2026-05-06 13:06 | 44.75131 | -0.22180 | 38920 ft | 415 kts | 220° |
| 2026-05-06 13:06 | 44.70669 | -0.27271 | 38920 ft | 415 kts | 220° |
| 2026-05-06 13:07 | 44.66934 | -0.31540 | 38933 ft | 415 kts | 221° |
| 2026-05-06 13:07 | 44.62291 | -0.36345 | 38971 ft | 416 kts | 217° |
| 2026-05-06 13:08 | 44.57511 | -0.40972 | 38947 ft | 416 kts | 216° |
| 2026-05-06 13:08 | 44.52729 | -0.45566 | 38921 ft | 416 kts | 216° |
| 2026-05-06 13:09 | 44.47977 | -0.50125 | 38930 ft | 416 kts | 216° |
| 2026-05-06 13:09 | 44.43201 | -0.54699 | 38952 ft | 415 kts | 216° |
| 2026-05-06 13:10 | 44.38413 | -0.59275 | 38934 ft | 416 kts | 216° |
| 2026-05-06 13:10 | 44.33641 | -0.63827 | 38950 ft | 415 kts | 216° |
| 2026-05-06 13:11 | 44.28893 | -0.68383 | 38953 ft | 415 kts | 215° |
| 2026-05-06 13:11 | 44.24074 | -0.72827 | 38960 ft | 415 kts | 215° |
| 2026-05-06 13:12 | 44.19248 | -0.77269 | 38954 ft | 415 kts | 215° |
| 2026-05-06 13:12 | 44.14427 | -0.81698 | 38963 ft | 415 kts | 215° |
| 2026-05-06 13:13 | 44.09623 | -0.86101 | 38957 ft | 414 kts | 216° |
| 2026-05-06 13:13 | 44.04810 | -0.90505 | 38978 ft | 414 kts | 216° |
| 2026-05-06 13:14 | 43.99995 | -0.94902 | 38975 ft | 413 kts | 216° |
| 2026-05-06 13:14 | 43.95185 | -0.99287 | 38980 ft | 413 kts | 216° |
| 2026-05-06 13:15 | 43.90390 | -1.03649 | 38999 ft | 412 kts | 216° |
| 2026-05-06 13:15 | 43.85590 | -1.08007 | 39001 ft | 412 kts | 216° |
| 2026-05-06 13:16 | 43.80791 | -1.12356 | 38983 ft | 412 kts | 216° |
| 2026-05-06 13:16 | 43.75957 | -1.16727 | 38998 ft | 412 kts | 216° |
| 2026-05-06 13:17 | 43.71158 | -1.21059 | 38992 ft | 412 kts | 216° |
| 2026-05-06 13:17 | 43.66365 | -1.25377 | 38995 ft | 412 kts | 216° |
| 2026-05-06 13:18 | 43.61565 | -1.29693 | 39002 ft | 412 kts | 216° |
| 2026-05-06 13:18 | 43.56796 | -1.33973 | 39043 ft | 411 kts | 216° |
| 2026-05-06 13:19 | 43.51962 | -1.38302 | 39023 ft | 412 kts | 216° |
| 2026-05-06 13:19 | 43.47154 | -1.42600 | 39018 ft | 412 kts | 216° |
| 2026-05-06 13:20 | 43.42377 | -1.46862 | 39023 ft | 412 kts | 216° |
| 2026-05-06 13:20 | 43.37573 | -1.51139 | 39018 ft | 411 kts | 216° |
| 2026-05-06 13:21 | 43.32768 | -1.55411 | 39027 ft | 411 kts | 216° |
| 2026-05-06 13:21 | 43.27915 | -1.59559 | 39037 ft | 413 kts | 208° |
| 2026-05-06 13:22 | 43.22409 | -1.61992 | 39053 ft | 420 kts | 193° |
| 2026-05-06 13:22 | 43.16591 | -1.63087 | 39033 ft | 422 kts | 191° |
| 2026-05-06 13:23 | 43.10758 | -1.64058 | 39050 ft | 422 kts | 191° |
| 2026-05-06 13:23 | 43.04927 | -1.65020 | 39020 ft | 422 kts | 191° |
| 2026-05-06 13:24 | 42.99098 | -1.65980 | 39029 ft | 422 kts | 191° |
| 2026-05-06 13:24 | 42.93261 | -1.66940 | 39019 ft | 422 kts | 191° |
| 2026-05-06 13:25 | 42.87436 | -1.67898 | 39031 ft | 421 kts | 191° |
| 2026-05-06 13:25 | 42.81615 | -1.68852 | 39013 ft | 421 kts | 191° |
| 2026-05-06 13:26 | 42.75821 | -1.69933 | 39022 ft | 417 kts | 198° |
| 2026-05-06 13:26 | 42.70328 | -1.72368 | 39027 ft | 413 kts | 207° |
| 2026-05-06 13:27 | 42.65162 | -1.75729 | 39017 ft | 411 kts | 210° |
| 2026-05-06 13:27 | 42.60026 | -1.79180 | 39017 ft | 411 kts | 210° |
| 2026-05-06 13:28 | 42.54889 | -1.82629 | 39007 ft | 411 kts | 210° |
| 2026-05-06 13:28 | 42.49753 | -1.86068 | 38999 ft | 411 kts | 210° |
| 2026-05-06 13:29 | 42.44631 | -1.89493 | 38993 ft | 411 kts | 210° |
| 2026-05-06 13:29 | 42.39500 | -1.92916 | 38989 ft | 410 kts | 210° |
| 2026-05-06 13:30 | 42.34403 | -1.96310 | 38987 ft | 410 kts | 210° |
| 2026-05-06 13:30 | 42.29252 | -1.99732 | 38983 ft | 410 kts | 210° |
| 2026-05-06 13:31 | 42.24127 | -2.03132 | 38988 ft | 410 kts | 210° |
| 2026-05-06 13:31 | 42.19041 | -2.06500 | 38979 ft | 410 kts | 210° |
| 2026-05-06 13:32 | 42.13916 | -2.09886 | 38974 ft | 409 kts | 210° |
| 2026-05-06 13:32 | 42.08792 | -2.13266 | 38970 ft | 409 kts | 210° |
| 2026-05-06 13:33 | 42.03666 | -2.16641 | 38977 ft | 409 kts | 210° |
| 2026-05-06 13:33 | 41.98540 | -2.20012 | 38977 ft | 410 kts | 210° |
| 2026-05-06 13:34 | 41.93423 | -2.23369 | 38969 ft | 409 kts | 210° |
| 2026-05-06 13:34 | 41.88305 | -2.26721 | 38975 ft | 409 kts | 210° |
| 2026-05-06 13:35 | 41.83198 | -2.30062 | 38959 ft | 408 kts | 210° |
| 2026-05-06 13:35 | 41.78084 | -2.33399 | 38965 ft | 408 kts | 210° |
| 2026-05-06 13:36 | 41.72975 | -2.36725 | 38963 ft | 408 kts | 210° |
| 2026-05-06 13:36 | 41.67872 | -2.40045 | 38965 ft | 408 kts | 210° |
| 2026-05-06 13:37 | 41.62768 | -2.43359 | 38959 ft | 407 kts | 210° |
| 2026-05-06 13:37 | 41.57664 | -2.46665 | 38962 ft | 407 kts | 210° |
| 2026-05-06 13:38 | 41.52569 | -2.49964 | 38959 ft | 407 kts | 210° |
| 2026-05-06 13:38 | 41.47504 | -2.53232 | 38961 ft | 406 kts | 210° |
| 2026-05-06 13:39 | 41.42415 | -2.56513 | 39002 ft | 406 kts | 210° |
| 2026-05-06 13:39 | 41.37331 | -2.59783 | 38982 ft | 405 kts | 210° |
| 2026-05-06 13:40 | 41.31989 | -2.62263 | 38960 ft | 414 kts | 193° |
| 2026-05-06 13:40 | 41.26193 | -2.62389 | 38965 ft | 420 kts | 181° |
| 2026-05-06 13:41 | 41.20347 | -2.61909 | 38957 ft | 420 kts | 181° |
| 2026-05-06 13:41 | 41.14524 | -2.61388 | 38959 ft | 420 kts | 181° |
| 2026-05-06 13:42 | 41.09670 | -2.60954 | 38945 ft | 419 kts | 181° |
| 2026-05-06 13:42 | 41.03863 | -2.60436 | 38966 ft | 418 kts | 181° |
| 2026-05-06 13:43 | 40.98062 | -2.59921 | 38959 ft | 418 kts | 181° |
| 2026-05-06 13:43 | 40.92262 | -2.59396 | 38952 ft | 417 kts | 181° |
| 2026-05-06 13:44 | 40.86477 | -2.58873 | 38953 ft | 416 kts | 181° |
| 2026-05-06 13:44 | 40.80704 | -2.58353 | 38957 ft | 415 kts | 181° |
| 2026-05-06 13:45 | 40.74934 | -2.57834 | 38957 ft | 415 kts | 181° |
| 2026-05-06 13:45 | 40.66306 | -2.57059 | 38961 ft | 414 kts | 181° |
| 2026-05-06 13:46 | 40.60554 | -2.56545 | 38950 ft | 414 kts | 181° |
| 2026-05-06 13:46 | 40.54846 | -2.56033 | 38956 ft | 414 kts | 181° |
| 2026-05-06 13:47 | 40.49102 | -2.55521 | 38951 ft | 413 kts | 181° |
| 2026-05-06 13:47 | 40.43357 | -2.55009 | 38961 ft | 413 kts | 181° |
| 2026-05-06 13:48 | 40.37668 | -2.55114 | 38943 ft | 404 kts | 196° |
| 2026-05-06 13:48 | 40.32281 | -2.56995 | 38967 ft | 398 kts | 205° |
| 2026-05-06 13:49 | 40.27096 | -2.59538 | 38944 ft | 397 kts | 205° |
| 2026-05-06 13:49 | 40.21938 | -2.62126 | 38957 ft | 397 kts | 205° |
| 2026-05-06 13:50 | 40.16784 | -2.64709 | 38949 ft | 397 kts | 205° |
| 2026-05-06 13:50 | 40.11626 | -2.67289 | 38954 ft | 396 kts | 205° |
| 2026-05-06 13:51 | 40.06476 | -2.69861 | 38959 ft | 396 kts | 205° |
| 2026-05-06 13:51 | 40.01315 | -2.72433 | 38948 ft | 396 kts | 205° |
| 2026-05-06 13:52 | 39.96166 | -2.74995 | 38943 ft | 396 kts | 205° |
| 2026-05-06 13:52 | 39.91009 | -2.77557 | 38961 ft | 396 kts | 205° |
| 2026-05-06 13:53 | 39.85866 | -2.80108 | 38954 ft | 396 kts | 205° |
| 2026-05-06 13:53 | 39.80711 | -2.82662 | 38959 ft | 396 kts | 205° |
| 2026-05-06 13:54 | 39.75563 | -2.85206 | 38961 ft | 396 kts | 205° |
| 2026-05-06 13:54 | 39.70412 | -2.87750 | 38955 ft | 396 kts | 205° |
| 2026-05-06 13:55 | 39.65273 | -2.90283 | 38958 ft | 395 kts | 205° |
| 2026-05-06 13:55 | 39.60130 | -2.92807 | 38952 ft | 395 kts | 206° |
| 2026-05-06 13:56 | 39.54987 | -2.95352 | 38957 ft | 395 kts | 205° |
| 2026-05-06 13:56 | 39.49873 | -2.97875 | 38946 ft | 395 kts | 205° |
| 2026-05-06 13:57 | 39.44735 | -3.00406 | 38948 ft | 395 kts | 205° |
| 2026-05-06 13:57 | 39.39600 | -3.02932 | 38941 ft | 395 kts | 205° |
| 2026-05-06 13:58 | 39.34455 | -3.05442 | 38948 ft | 395 kts | 205° |
| 2026-05-06 13:58 | 39.29312 | -3.07947 | 38932 ft | 395 kts | 205° |
| 2026-05-06 13:59 | 39.24173 | -3.10445 | 38939 ft | 394 kts | 205° |
| 2026-05-06 13:59 | 39.19036 | -3.12938 | 38935 ft | 394 kts | 205° |
| 2026-05-06 14:00 | 39.13903 | -3.15426 | 38936 ft | 393 kts | 205° |
| 2026-05-06 14:00 | 39.08804 | -3.17894 | 38934 ft | 393 kts | 205° |
| 2026-05-06 14:01 | 39.03678 | -3.20371 | 38927 ft | 393 kts | 205° |
| 2026-05-06 14:01 | 38.98551 | -3.22843 | 38931 ft | 393 kts | 205° |
| 2026-05-06 14:02 | 38.93425 | -3.25311 | 38935 ft | 392 kts | 205° |
| 2026-05-06 14:02 | 38.88314 | -3.27767 | 38923 ft | 392 kts | 205° |
| 2026-05-06 14:03 | 38.83660 | -3.31186 | 38932 ft | 382 kts | 225° |
| 2026-05-06 14:03 | 38.80237 | -3.36291 | 38931 ft | 379 kts | 233° |
| 2026-05-06 14:04 | 38.76831 | -3.41464 | 38911 ft | 380 kts | 230° |
| 2026-05-06 14:04 | 38.73208 | -3.46418 | 38924 ft | 383 kts | 222° |
| 2026-05-06 14:05 | 38.68725 | -3.50175 | 38915 ft | 386 kts | 214° |
| 2026-05-06 14:05 | 38.64141 | -3.53762 | 38907 ft | 386 kts | 215° |
| 2026-05-06 14:06 | 38.59627 | -3.57452 | 38914 ft | 384 kts | 218° |
| 2026-05-06 14:06 | 38.55249 | -3.61360 | 38910 ft | 384 kts | 219° |
| 2026-05-06 14:07 | 38.50878 | -3.65290 | 38910 ft | 384 kts | 219° |
| 2026-05-06 14:07 | 38.46506 | -3.69213 | 38909 ft | 383 kts | 219° |
| 2026-05-06 14:08 | 38.42134 | -3.73129 | 38897 ft | 383 kts | 219° |
| 2026-05-06 14:08 | 38.37796 | -3.77007 | 38903 ft | 384 kts | 219° |
| 2026-05-06 14:09 | 38.33397 | -3.80934 | 38892 ft | 383 kts | 219° |
| 2026-05-06 14:09 | 38.31221 | -3.82874 | 38590 ft | 380 kts | 219° |
| 2026-05-06 14:09 | 38.29045 | -3.84814 | 37658 ft | 384 kts | 219° |
| 2026-05-06 14:10 | 38.26865 | -3.86754 | 37013 ft | 381 kts | 219° |
| 2026-05-06 14:10 | 38.24701 | -3.88678 | 36341 ft | 378 kts | 218° |
| 2026-05-06 14:10 | 38.22550 | -3.90591 | 35676 ft | 376 kts | 219° |
| 2026-05-06 14:10 | 38.20435 | -3.92470 | 35018 ft | 373 kts | 218° |
| 2026-05-06 14:11 | 38.18289 | -3.94374 | 34369 ft | 370 kts | 219° |
| 2026-05-06 14:11 | 38.16209 | -3.96220 | 33678 ft | 368 kts | 218° |
| 2026-05-06 14:11 | 38.14075 | -3.98114 | 32893 ft | 375 kts | 218° |
| 2026-05-06 14:11 | 38.11962 | -3.99984 | 32380 ft | 375 kts | 218° |
| 2026-05-06 14:12 | 38.09817 | -4.01882 | 31931 ft | 376 kts | 218° |
| 2026-05-06 14:12 | 38.07663 | -4.03787 | 31500 ft | 379 kts | 218° |
| 2026-05-06 14:12 | 38.05481 | -4.05714 | 31059 ft | 381 kts | 218° |
| 2026-05-06 14:12 | 38.03299 | -4.07642 | 30627 ft | 383 kts | 218° |
| 2026-05-06 14:13 | 38.01096 | -4.09585 | 30205 ft | 386 kts | 217° |
| 2026-05-06 14:13 | 37.98895 | -4.11526 | 29752 ft | 388 kts | 217° |
| 2026-05-06 14:13 | 37.96673 | -4.13482 | 29244 ft | 387 kts | 217° |
| 2026-05-06 14:13 | 37.94473 | -4.15421 | 28745 ft | 385 kts | 217° |
| 2026-05-06 14:14 | 37.92271 | -4.17357 | 28249 ft | 383 kts | 218° |
| 2026-05-06 14:14 | 37.90080 | -4.19286 | 27766 ft | 382 kts | 217° |
| 2026-05-06 14:14 | 37.87900 | -4.21200 | 27303 ft | 381 kts | 218° |
| 2026-05-06 14:14 | 37.85729 | -4.23108 | 26830 ft | 380 kts | 217° |
| 2026-05-06 14:15 | 37.83582 | -4.24991 | 26379 ft | 379 kts | 218° |
| 2026-05-06 14:15 | 37.81419 | -4.26886 | 25925 ft | 378 kts | 218° |
| 2026-05-06 14:15 | 37.79230 | -4.28803 | 25473 ft | 377 kts | 218° |
| 2026-05-06 14:15 | 37.77079 | -4.30685 | 25042 ft | 377 kts | 218° |
| 2026-05-06 14:16 | 37.74949 | -4.32550 | 24623 ft | 376 kts | 218° |
| 2026-05-06 14:16 | 37.72800 | -4.34427 | 24209 ft | 375 kts | 218° |
| 2026-05-06 14:16 | 37.70654 | -4.36304 | 23772 ft | 375 kts | 218° |
| 2026-05-06 14:16 | 37.68504 | -4.38180 | 23279 ft | 374 kts | 217° |
| 2026-05-06 14:17 | 37.66374 | -4.40037 | 22743 ft | 371 kts | 217° |
| 2026-05-06 14:17 | 37.64255 | -4.41885 | 22211 ft | 368 kts | 217° |
| 2026-05-06 14:17 | 37.62135 | -4.43730 | 21691 ft | 366 kts | 217° |
| 2026-05-06 14:17 | 37.60070 | -4.45529 | 21174 ft | 363 kts | 217° |
| 2026-05-06 14:18 | 37.58003 | -4.47329 | 20682 ft | 361 kts | 217° |
| 2026-05-06 14:18 | 37.55937 | -4.49123 | 20191 ft | 359 kts | 217° |
| 2026-05-06 14:18 | 37.53888 | -4.50900 | 19720 ft | 356 kts | 217° |
| 2026-05-06 14:18 | 37.51848 | -4.52673 | 19247 ft | 354 kts | 217° |
| 2026-05-06 14:19 | 37.49824 | -4.54430 | 18774 ft | 353 kts | 216° |
| 2026-05-06 14:19 | 37.48484 | -4.55591 | 18480 ft | 351 kts | 216° |
| 2026-05-06 14:19 | 37.46465 | -4.57338 | 17982 ft | 350 kts | 216° |
| 2026-05-06 14:19 | 37.44468 | -4.59066 | 17471 ft | 348 kts | 216° |
| 2026-05-06 14:20 | 37.42478 | -4.60792 | 16956 ft | 346 kts | 216° |
| 2026-05-06 14:20 | 37.40496 | -4.62507 | 16472 ft | 344 kts | 216° |
| 2026-05-06 14:20 | 37.38519 | -4.64214 | 15930 ft | 343 kts | 216° |
| 2026-05-06 14:20 | 37.36577 | -4.65889 | 15320 ft | 342 kts | 216° |
| 2026-05-06 14:21 | 37.34626 | -4.67571 | 14732 ft | 340 kts | 215° |
| 2026-05-06 14:21 | 37.32684 | -4.69245 | 14147 ft | 336 kts | 215° |
| 2026-05-06 14:21 | 37.30747 | -4.70917 | 13387 ft | 338 kts | 215° |
| 2026-05-06 14:21 | 37.28807 | -4.72592 | 12599 ft | 339 kts | 215° |
| 2026-05-06 14:22 | 37.26859 | -4.74262 | 11934 ft | 337 kts | 215° |
| 2026-05-06 14:22 | 37.24935 | -4.75922 | 11346 ft | 334 kts | 215° |
| 2026-05-06 14:22 | 37.23020 | -4.77571 | 10750 ft | 331 kts | 215° |
| 2026-05-06 14:22 | 37.21087 | -4.79140 | 10164 ft | 329 kts | 207° |
| 2026-05-06 14:23 | 37.18938 | -4.79995 | 9590 ft | 328 kts | 192° |
| 2026-05-06 14:23 | 37.16670 | -4.80141 | 9033 ft | 326 kts | 180° |
| 2026-05-06 14:23 | 37.14424 | -4.80160 | 8724 ft | 315 kts | 181° |
| 2026-05-06 14:23 | 37.12269 | -4.80155 | 8496 ft | 304 kts | 180° |
| 2026-05-06 14:24 | 37.10189 | -4.80128 | 8276 ft | 294 kts | 181° |
| 2026-05-06 14:24 | 37.08168 | -4.80108 | 8053 ft | 286 kts | 181° |
| 2026-05-06 14:24 | 37.06194 | -4.80087 | 7800 ft | 279 kts | 180° |
| 2026-05-06 14:24 | 37.04289 | -4.80060 | 7575 ft | 276 kts | 180° |
| 2026-05-06 14:25 | 37.02363 | -4.80044 | 7306 ft | 278 kts | 181° |
| 2026-05-06 14:25 | 37.00407 | -4.80030 | 6850 ft | 281 kts | 180° |
| 2026-05-06 14:25 | 36.98442 | -4.79997 | 6431 ft | 283 kts | 180° |
| 2026-05-06 14:25 | 36.96466 | -4.79968 | 6010 ft | 282 kts | 179° |
| 2026-05-06 14:26 | 36.94580 | -4.79797 | 5702 ft | 263 kts | 174° |
| 2026-05-06 14:26 | 36.92796 | -4.79474 | 5482 ft | 257 kts | 171° |
| 2026-05-06 14:26 | 36.91065 | -4.78974 | 5287 ft | 253 kts | 163° |
| 2026-05-06 14:26 | 36.89437 | -4.78300 | 5035 ft | 243 kts | 162° |
| 2026-05-06 14:27 | 36.87867 | -4.77604 | 4972 ft | 235 kts | 160° |
| 2026-05-06 14:27 | 36.86391 | -4.76828 | 4852 ft | 234 kts | 154° |
| 2026-05-06 14:27 | 36.84953 | -4.75887 | 4617 ft | 233 kts | 152° |
| 2026-05-06 14:27 | 36.83506 | -4.74956 | 4369 ft | 233 kts | 152° |
| 2026-05-06 14:28 | 36.82091 | -4.73957 | 4159 ft | 233 kts | 151° |
| 2026-05-06 14:28 | 36.80680 | -4.72994 | 4036 ft | 228 kts | 152° |
| 2026-05-06 14:28 | 36.79291 | -4.72060 | 3968 ft | 225 kts | 149° |
| 2026-05-06 14:28 | 36.78053 | -4.70838 | 3773 ft | 228 kts | 134° |
| 2026-05-06 14:29 | 36.77041 | -4.69371 | 3598 ft | 223 kts | 127° |
| 2026-05-06 14:29 | 36.76221 | -4.67761 | 3248 ft | 220 kts | 119° |
| 2026-05-06 14:29 | 36.75504 | -4.66091 | 3033 ft | 211 kts | 118° |
| 2026-05-06 14:29 | 36.74821 | -4.64462 | 2543 ft | 215 kts | 117° |
| 2026-05-06 14:30 | 36.74146 | -4.62849 | 2273 ft | 200 kts | 118° |
| 2026-05-06 14:30 | 36.73526 | -4.61365 | 2059 ft | 184 kts | 118° |
| 2026-05-06 14:30 | 36.72960 | -4.60004 | 1805 ft | 170 kts | 118° |
| 2026-05-06 14:30 | 36.72432 | -4.58742 | 1505 ft | 158 kts | 118° |
| 2026-05-06 14:31 | 36.71939 | -4.57573 | 1293 ft | 146 kts | 118° |
| 2026-05-06 14:31 | 36.71482 | -4.56489 | 1067 ft | 137 kts | 117° |
| 2026-05-06 14:31 | 36.71058 | -4.55445 | 933 ft | 136 kts | 117° |
| 2026-05-06 14:31 | 36.70618 | -4.54407 | 753 ft | 132 kts | 118° |
| 2026-05-06 14:32 | 36.70209 | -4.53412 | 532 ft | 130 kts | 117° |
| 2026-05-06 14:32 | 36.69785 | -4.52398 | 382 ft | 135 kts | 118° |
| 2026-05-06 14:32 | 36.69354 | -4.51364 | 163 ft | 132 kts | 118° |
| 2026-05-06 14:32 | 36.68936 | -4.50379 | 49 ft | 118 kts | 117° |
| 2026-05-06 14:33 | 36.68629 | -4.49649 | 46 ft | 75 kts | 117° |
| 2026-05-06 14:33 | 36.68450 | -4.49362 | 44 ft | 36 kts | 144° |
| 2026-05-06 14:33 | 36.68309 | -4.49295 | 37 ft | 6 kts | 204° |
| 2026-05-06 14:33 | 36.68259 | -4.49343 | 39 ft | 12 kts | 219° |
| 2026-05-06 14:34 | 36.68194 | -4.49414 | 40 ft | 14 kts | 221° |
| 2026-05-06 14:34 | 36.68106 | -4.49514 | 41 ft | 18 kts | 222° |
| 2026-05-06 14:34 | 36.68032 | -4.49568 | 41 ft | 5 kts | 161° |
| 2026-05-06 14:34 | 36.67972 | -4.49497 | 41 ft | 15 kts | 131° |
| 2026-05-06 14:35 | 36.67900 | -4.49398 | 41 ft | 7 kts | 131° |
| 2026-05-06 14:35 | 36.67883 | -4.49390 | 41 ft | 5 kts | 176° |
| 2026-05-06 14:35 | 36.67840 | -4.49420 | 41 ft | 7 kts | 214° |
| 2026-05-06 14:35 | 36.67839 | -4.49421 | 41 ft | 0 kts | 214° |